Time;durP1;ratioP1;P1;durP2;ratioP2;P2;SDS_P1;SDS_P2;PMS_P1;PMS_P2;Temp;Humidity;BMP_temperature;BMP_pressure;BME280_temperature;BME280_humidity;BME280_pressure;Samples;Min_cycle;Max_cycle;Signal;HPM_P1;HPM_P2
2022/05/20 00:01:02;;;;;;;30.63;25.88;;;;;;;15.53;81.64;102232.63;5075164;28;20035;-48
2022/05/20 00:03:29;;;;;;;33.88;26.58;;;;;;;15.49;82.41;102237.66;5080561;28;20027;-50
2022/05/20 00:05:54;;;;;;;32.97;27.73;;;;;;;15.46;82.09;102234.97;5074857;28;20030;-44
2022/05/20 00:08:20;;;;;;;32.30;26.30;;;;;;;15.44;82.04;102229.75;5075749;28;20161;-53
2022/05/20 00:10:45;;;;;;;31.88;25.45;;;;;;;15.37;82.23;102234.72;5079871;28;20020;-52
2022/05/20 00:13:11;;;;;;;32.63;25.98;;;;;;;15.35;82.07;102234.66;5076765;28;20027;-47
2022/05/20 00:15:36;;;;;;;33.28;26.60;;;;;;;15.39;81.88;102231.31;5080798;28;20028;-53
2022/05/20 00:18:02;;;;;;;29.58;25.15;;;;;;;15.35;81.77;102226.91;5080346;28;20028;-46
2022/05/20 00:20:28;;;;;;;31.95;25.40;;;;;;;15.28;81.98;102235.28;5079634;28;20052;-50
2022/05/20 00:22:54;;;;;;;34.03;25.13;;;;;;;15.29;82.03;102231.91;5079094;28;20032;-49
2022/05/20 00:28:06;;;;;;;27.85;24.63;;;;;;;15.30;81.32;102231.06;5079595;28;20082;-50
2022/05/20 00:30:33;;;;;;;31.15;24.88;;;;;;;15.22;82.18;102223.03;5077289;28;20056;-53
2022/05/20 00:32:58;;;;;;;31.33;25.67;;;;;;;15.23;82.13;102231.72;5081469;28;20476;-51
2022/05/20 00:35:25;;;;;;;30.45;25.48;;;;;;;15.17;82.57;102229.81;5079250;28;20036;-48
2022/05/20 00:37:50;;;;;;;32.40;25.25;;;;;;;15.11;82.63;102228.72;5078746;28;20027;-51
2022/05/20 00:40:20;;;;;;;28.88;25.20;;;;;;;15.10;82.76;102220.06;5077896;28;20370;-50
2022/05/20 00:42:45;;;;;;;31.33;25.55;;;;;;;15.03;82.73;102228.47;5078962;28;20051;-52
2022/05/20 00:45:12;;;;;;;27.65;24.65;;;;;;;14.98;82.68;102220.53;5078724;28;20035;-49
2022/05/20 00:47:37;;;;;;;28.77;24.58;;;;;;;15.02;82.55;102227.59;5080200;28;20071;-50
2022/05/20 00:50:09;;;;;;;30.83;25.85;;;;;;;15.01;82.83;102222.38;5079848;28;20032;-45
2022/05/20 00:52:37;;;;;;;29.20;26.02;;;;;;;15.07;82.63;102222.56;5084478;28;20469;-49
2022/05/20 00:55:10;;;;;;;30.83;25.55;;;;;;;15.00;83.11;102220.63;5080460;28;20414;-52
2022/05/20 00:57:41;;;;;;;32.70;26.98;;;;;;;14.95;83.34;102222.19;5076060;28;20082;-53
2022/05/20 01:00:11;;;;;;;34.35;27.35;;;;;;;14.98;82.90;102217.97;5075388;28;20044;-53
2022/05/20 01:02:38;;;;;;;30.88;26.83;;;;;;;14.89;83.09;102220.28;5074895;28;20039;-51
2022/05/20 01:05:13;;;;;;;36.35;28.58;;;;;;;14.91;83.60;102220.31;5077234;28;20020;-46
2022/05/20 01:07:40;;;;;;;35.25;28.90;;;;;;;14.88;83.63;102221.09;5074590;28;20036;-52
2022/05/20 01:10:07;;;;;;;34.53;28.65;;;;;;;14.83;84.36;102214.03;5071130;28;20519;-48
2022/05/20 01:12:32;;;;;;;33.65;28.85;;;;;;;14.83;84.57;102214.03;5079329;28;20032;-47
2022/05/20 01:14:58;;;;;;;34.97;28.95;;;;;;;14.86;84.14;102211.50;5079583;28;20036;-49
2022/05/20 01:17:23;;;;;;;35.78;27.83;;;;;;;14.81;83.85;102223.47;5078085;28;20051;-52
2022/05/20 01:19:53;;;;;;;36.60;27.20;;;;;;;14.78;84.04;102211.28;5079442;28;20043;-53
2022/05/20 01:22:37;;;;;;;33.25;27.40;;;;;;;14.84;83.80;102219.25;5079857;28;20036;-49
2022/05/20 01:25:04;;;;;;;32.60;25.58;;;;;;;14.74;83.68;102212.91;5079621;28;20034;-49
2022/05/20 01:27:30;;;;;;;29.85;25.83;;;;;;;14.67;83.90;102216.09;5077687;28;20024;-49
2022/05/20 01:29:55;;;;;;;27.20;24.20;;;;;;;14.62;83.56;102217.69;5075584;28;20027;-52
2022/05/20 01:32:20;;;;;;;23.92;21.35;;;;;;;14.65;83.31;102219.47;5074619;28;20416;-51
2022/05/20 01:34:46;;;;;;;20.92;18.58;;;;;;;14.61;82.75;102220.19;5075251;28;20155;-51
2022/05/20 01:37:11;;;;;;;21.20;19.10;;;;;;;14.55;83.01;102207.94;5079091;28;20064;-47
2022/05/20 01:39:37;;;;;;;21.27;19.08;;;;;;;14.55;82.99;102207.94;5078418;28;20389;-47
2022/05/20 01:42:20;;;;;;;22.10;19.67;;;;;;;14.55;83.41;102202.75;5078329;28;20032;-53
2022/05/20 01:45:04;;;;;;;23.52;20.40;;;;;;;14.52;83.38;102199.19;5079323;28;20440;-49
2022/05/20 01:48:05;;;;;;;24.90;21.45;;;;;;;14.52;83.27;102191.44;5078604;28;20051;-50
2022/05/20 01:50:37;;;;;;;23.42;20.92;;;;;;;14.42;83.64;102191.09;5076501;28;20093;-51
2022/05/20 01:53:28;;;;;;;24.13;21.23;;;;;;;14.50;83.49;102188.81;5083007;28;20027;-52
2022/05/20 01:56:06;;;;;;;23.58;20.10;;;;;;;14.41;83.71;102181.56;5075834;28;20563;-52
2022/05/20 01:58:47;;;;;;;21.87;19.60;;;;;;;14.41;83.74;102184.16;5077177;28;20537;-50
2022/05/20 02:01:23;;;;;;;21.20;18.92;;;;;;;14.37;83.78;102189.16;5078103;28;20355;-52
2022/05/20 02:03:54;;;;;;;20.13;18.02;;;;;;;14.31;83.84;102189.84;5077883;28;20118;-50
2022/05/20 02:06:26;;;;;;;21.60;18.70;;;;;;;14.24;84.26;102200.81;5079417;28;20066;-52
2022/05/20 02:09:04;;;;;;;20.75;18.55;;;;;;;14.25;84.04;102199.97;5077727;28;20035;-53
2022/05/20 02:11:53;;;;;;;20.17;17.88;;;;;;;14.25;83.98;102199.97;5077758;28;20119;-48
2022/05/20 02:14:32;;;;;;;19.83;17.73;;;;;;;14.26;83.99;102190.50;5080655;28;20028;-50
2022/05/20 02:17:22;;;;;;;19.92;17.83;;;;;;;14.27;84.11;102182.81;5075328;28;20028;-51
2022/05/20 02:19:54;;;;;;;20.40;18.27;;;;;;;14.32;84.00;102180.38;5074014;28;20033;-51
2022/05/20 02:22:23;;;;;;;21.00;18.83;;;;;;;14.31;83.97;102176.91;5076465;28;20065;-49
2022/05/20 02:24:49;;;;;;;;;;;;;;;14.59;82.14;102183.03;5081382;28;20032;-53
2022/05/20 02:27:22;;;;;;;21.70;19.42;;;;;;;14.30;83.30;102182.03;5079847;28;19915;-51
2022/05/20 02:29:59;;;;;;;21.88;19.45;;;;;;;14.23;83.69;102175.78;5077115;28;20066;-46
2022/05/20 02:32:30;;;;;;;23.23;20.08;;;;;;;14.25;84.15;102186.16;5082275;28;20038;-52
2022/05/20 02:34:55;;;;;;;23.77;20.30;;;;;;;14.15;84.17;102182.41;5078442;28;20044;-50
2022/05/20 02:37:20;;;;;;;23.73;20.35;;;;;;;14.11;84.40;102185.69;5081097;28;20485;-49
2022/05/20 02:39:46;;;;;;;30.58;20.58;;;;;;;14.09;84.80;102179.59;5079216;28;20078;-48
2022/05/20 02:42:12;;;;;;;26.77;19.88;;;;;;;14.03;84.72;102188.03;5083433;28;20032;-52
2022/05/20 02:44:37;;;;;;;27.85;20.27;;;;;;;13.97;84.73;102187.81;5079849;28;20028;-52
2022/05/20 02:47:03;;;;;;;22.42;20.13;;;;;;;13.92;85.33;102182.47;5079024;28;20032;-53
2022/05/20 02:49:29;;;;;;;29.23;20.52;;;;;;;13.94;85.29;102175.63;5080918;28;20111;-48
2022/05/20 02:51:54;;;;;;;33.60;20.27;;;;;;;13.88;85.51;102172.84;5080191;28;20046;-52
2022/05/20 02:54:19;;;;;;;23.17;20.30;;;;;;;13.88;85.97;102180.59;5086868;28;20032;-52
2022/05/20 02:56:45;;;;;;;23.65;20.58;;;;;;;13.90;85.48;102180.66;5078304;28;20032;-51
2022/05/20 03:04:40;;;;;;;21.73;19.45;;;;;;;13.81;85.58;102172.56;5082370;28;20461;-51
2022/05/20 03:07:06;;;;;;;22.73;20.33;;;;;;;13.80;85.42;102174.28;5081910;28;20829;-49
2022/05/20 03:09:31;;;;;;;21.45;19.30;;;;;;;13.75;85.42;102173.22;5083016;28;20039;-49
2022/05/20 03:11:57;;;;;;;20.83;18.73;;;;;;;13.77;85.57;102171.59;5076636;28;20028;-52
2022/05/20 03:14:24;;;;;;;24.10;20.02;;;;;;;13.75;85.57;102172.34;5081798;28;20024;-51
2022/05/20 03:16:50;;;;;;;22.65;20.08;;;;;;;13.72;85.68;102173.13;5078146;28;20036;-49
2022/05/20 03:19:16;;;;;;;22.23;19.83;;;;;;;13.72;85.79;102160.22;5083711;28;20042;-52
2022/05/20 03:21:42;;;;;;;34.72;20.58;;;;;;;13.68;85.61;102164.38;5078054;28;20048;-48
2022/05/20 03:24:08;;;;;;;29.13;20.30;;;;;;;13.64;86.14;102161.63;5075588;28;20165;-49
2022/05/20 03:26:34;;;;;;;21.67;19.48;;;;;;;13.72;85.90;102164.50;5084221;28;20032;-48
2022/05/20 03:29:02;;;;;;;22.75;20.35;;;;;;;13.73;86.27;102161.97;5081770;28;20039;-52
2022/05/20 03:31:28;;;;;;;23.25;20.88;;;;;;;13.73;86.11;102164.56;5081889;28;20087;-52
2022/05/20 03:33:54;;;;;;;24.90;21.63;;;;;;;13.68;86.01;102158.34;5075969;28;20029;-49
2022/05/20 03:36:19;;;;;;;24.20;21.52;;;;;;;13.65;86.23;102166.88;5078473;28;20035;-52
2022/05/20 03:38:45;;;;;;;23.95;20.02;;;;;;;13.59;86.13;102164.06;5075527;28;20043;-49
2022/05/20 03:41:10;;;;;;;21.63;19.17;;;;;;;13.61;86.48;102170.16;5083548;28;20067;-51
2022/05/20 03:43:37;;;;;;;21.13;18.75;;;;;;;13.63;86.13;102176.25;5077579;28;20507;-49
2022/05/20 03:46:03;;;;;;;22.02;18.73;;;;;;;13.66;85.75;102175.50;5078099;28;20480;-51
2022/05/20 03:48:29;;;;;;;21.27;19.08;;;;;;;13.66;86.05;102170.34;5078530;28;20090;-52
2022/05/20 03:50:55;;;;;;;21.55;19.33;;;;;;;13.68;86.14;102174.72;5073022;28;20024;-47
2022/05/20 03:53:20;;;;;;;29.80;21.02;;;;;;;13.66;85.94;102175.50;5080753;28;20419;-52
2022/05/20 03:55:45;;;;;;;22.30;19.90;;;;;;;13.60;85.99;102167.53;5079818;28;20480;-51
2022/05/20 03:58:11;;;;;;;21.42;19.23;;;;;;;13.59;86.49;102171.81;5083865;28;20028;-53
2022/05/20 04:03:22;;;;;;;24.02;21.42;;;;;;;13.59;86.85;102160.56;5080290;28;20506;-52
2022/05/20 04:05:48;;;;;;;24.38;21.33;;;;;;;13.61;86.85;102149.47;5076806;28;20036;-48
2022/05/20 04:08:14;;;;;;;26.08;22.65;;;;;;;13.61;87.66;102133.97;5076888;28;20036;-49
2022/05/20 04:10:40;;;;;;;26.08;21.80;;;;;;;13.66;87.29;102128.97;5083729;28;20024;-52
2022/05/20 04:13:06;;;;;;;26.80;21.52;;;;;;;13.63;87.52;102134.03;5076857;28;20078;-53
2022/05/20 04:15:31;;;;;;;27.45;22.05;;;;;;;13.57;87.78;102131.22;5079746;28;20560;-52
2022/05/20 04:17:57;;;;;;;35.97;21.90;;;;;;;13.59;88.08;102124.38;5079350;28;20111;-51
2022/05/20 04:20:22;;;;;;;28.10;22.83;;;;;;;13.62;88.09;102127.97;5076758;28;20043;-51
2022/05/20 04:22:47;;;;;;;34.78;22.58;;;;;;;13.61;88.00;102126.22;5078745;28;20031;-45
2022/05/20 04:25:13;;;;;;;26.52;23.70;;;;;;;13.61;87.98;102120.19;5075114;28;20036;-52
2022/05/20 04:27:39;;;;;;;35.63;24.38;;;;;;;13.66;87.89;102122.09;5079259;28;20032;-48
2022/05/20 04:30:06;;;;;;;25.40;22.63;;;;;;;13.62;88.11;102120.22;5078145;28;20028;-53
2022/05/20 04:32:32;;;;;;;27.50;23.48;;;;;;;13.61;88.16;102115.00;5081384;28;20032;-52
2022/05/20 04:34:57;;;;;;;25.95;23.02;;;;;;;13.72;88.08;102118.84;5075234;28;20530;-49
2022/05/20 04:37:23;;;;;;;25.85;23.08;;;;;;;13.72;88.23;102136.94;5082295;28;20073;-51
2022/05/20 04:39:49;;;;;;;26.20;23.20;;;;;;;13.76;88.61;102136.22;5079424;28;20148;-49
2022/05/20 04:47:43;;;;;;;35.20;27.40;;;;;;;13.79;90.24;102136.34;5079610;28;20050;-48
2022/05/20 04:50:09;;;;;;;39.30;27.50;;;;;;;13.83;90.54;102132.13;5078758;28;20028;-52
2022/05/20 04:52:34;;;;;;;36.15;28.60;;;;;;;13.85;89.82;102143.44;5076402;28;20053;-50
2022/05/20 04:55:01;;;;;;;34.60;27.48;;;;;;;13.83;90.23;102148.56;5077185;28;20602;-51
2022/05/20 04:57:36;;;;;;;33.42;26.95;;;;;;;13.87;90.45;102157.28;5080632;28;20035;-47
2022/05/20 05:00:18;;;;;;;33.63;28.27;;;;;;;13.89;90.01;102155.63;5074917;28;20027;-52
2022/05/20 05:02:43;;;;;;;34.28;27.17;;;;;;;13.91;90.06;102157.44;5074281;28;20059;-52
2022/05/20 05:05:11;;;;;;;32.15;27.13;;;;;;;14.03;90.08;102156.13;5074390;28;20032;-46
2022/05/20 05:07:38;;;;;;;33.85;27.50;;;;;;;14.03;89.94;102163.88;5072677;28;20020;-48
2022/05/20 05:10:04;;;;;;;31.27;27.10;;;;;;;14.09;90.16;102161.50;5070668;28;20393;-49
2022/05/20 05:12:30;;;;;;;32.22;26.58;;;;;;;14.09;90.04;102149.44;5071914;28;20047;-49
2022/05/20 05:14:56;;;;;;;32.90;26.10;;;;;;;14.13;90.12;102134.88;5071068;28;20023;-50
2022/05/20 05:20:12;;;;;;;30.77;27.10;;;;;;;14.36;90.17;102152.06;5073961;28;20395;-52
2022/05/20 05:22:37;;;;;;;31.40;26.35;;;;;;;14.34;90.01;102151.16;5073166;28;20093;-52
2022/05/20 05:25:03;;;;;;;35.63;28.27;;;;;;;14.37;90.00;102151.22;5073336;28;20051;-51
2022/05/20 05:27:29;;;;;;;32.67;26.92;;;;;;;14.43;89.46;102146.25;5072706;28;20312;-52
2022/05/20 05:29:54;;;;;;;31.60;26.25;;;;;;;14.48;90.05;102149.03;5072062;28;20046;-45
2022/05/20 05:32:20;;;;;;;32.50;27.25;;;;;;;14.52;90.64;102147.44;5078239;28;20044;-49
2022/05/20 05:34:45;;;;;;;33.50;27.70;;;;;;;14.56;90.37;102134.66;5076356;28;20057;-52
2022/05/20 05:37:11;;;;;;;32.67;27.90;;;;;;;14.67;90.39;102127.19;5072429;28;20024;-46
2022/05/20 05:39:37;;;;;;;37.67;28.77;;;;;;;14.71;90.48;102126.47;5070013;28;20172;-52
2022/05/20 05:42:03;;;;;;;37.70;29.52;;;;;;;14.77;89.96;102126.66;5073013;28;20055;-52
2022/05/20 05:44:28;;;;;;;34.75;28.60;;;;;;;14.84;90.27;102120.84;5071502;28;20060;-51
2022/05/20 05:46:55;;;;;;;34.17;28.58;;;;;;;14.94;90.03;102125.47;5074399;28;20615;-51
2022/05/20 05:49:20;;;;;;;38.40;28.92;;;;;;;14.97;90.20;102120.38;5071594;28;20036;-47
2022/05/20 05:51:46;;;;;;;33.72;27.80;;;;;;;15.03;90.10;102120.56;5075240;28;20058;-53
2022/05/20 05:54:11;;;;;;;37.97;28.83;;;;;;;15.11;90.04;102106.97;5074454;28;20043;-53
2022/05/20 05:56:37;;;;;;;33.63;27.45;;;;;;;15.21;89.24;102106.38;5069951;28;20028;-53
2022/05/20 05:59:04;;;;;;;31.25;23.90;;;;;;;15.29;87.89;102110.09;5075201;28;20064;-52
2022/05/20 06:01:29;;;;;;;32.35;24.88;;;;;;;15.40;86.87;102111.25;5066272;28;20218;-51
2022/05/20 06:03:55;;;;;;;32.95;24.80;;;;;;;15.42;86.14;102108.72;5073411;28;20392;-50
2022/05/20 06:06:20;;;;;;;28.05;20.35;;;;;;;15.52;83.73;102097.75;5066754;28;20111;-53
2022/05/20 06:08:46;;;;;;;25.77;19.20;;;;;;;15.56;82.76;102109.97;5080129;28;20042;-53
2022/05/20 06:11:12;;;;;;;26.00;19.23;;;;;;;15.64;81.71;102112.81;5077564;28;20026;-51
2022/05/20 06:13:37;;;;;;;23.67;17.48;;;;;;;15.72;81.67;102122.56;5078231;28;20442;-53
2022/05/20 06:16:03;;;;;;;22.02;16.48;;;;;;;15.87;80.03;102110.81;5078642;28;20032;-52
2022/05/20 06:18:29;;;;;;;25.52;16.83;;;;;;;16.00;80.82;102118.97;5075243;28;20035;-52
2022/05/20 06:20:54;;;;;;;20.15;15.77;;;;;;;16.05;79.22;102112.19;5077635;28;20032;-52
2022/05/20 06:23:20;;;;;;;21.40;15.10;;;;;;;16.20;77.56;102118.56;5082215;28;20487;-49
2022/05/20 06:25:45;;;;;;;19.55;14.07;;;;;;;16.33;76.57;102107.69;5076394;28;20020;-53
2022/05/20 06:28:16;;;;;;;19.80;13.57;;;;;;;16.40;76.09;102104.38;5078610;28;20078;-52
2022/05/20 06:30:42;;;;;;;19.40;13.13;;;;;;;16.50;75.04;102097.69;5077465;28;20020;-49
2022/05/20 06:33:08;;;;;;;18.13;12.75;;;;;;;16.62;73.17;102096.28;5077843;28;21527;-48
2022/05/20 06:41:02;;;;;;;16.55;10.70;;;;;;;16.92;69.10;102074.41;5081532;28;20051;-52
2022/05/20 06:43:28;;;;;;;13.18;10.60;;;;;;;17.05;69.51;102080.78;5082151;28;20054;-53
2022/05/20 06:45:56;;;;;;;16.00;10.88;;;;;;;17.14;70.44;102074.03;5084093;28;20093;-52
2022/05/20 06:48:23;;;;;;;18.27;11.63;;;;;;;17.28;69.30;102082.09;5084179;28;20094;-53
2022/05/20 06:50:49;;;;;;;14.52;11.02;;;;;;;17.34;68.12;102083.94;5082580;28;20111;-52
2022/05/20 06:53:14;;;;;;;17.45;10.15;;;;;;;17.42;68.70;102087.59;5080044;28;20120;-48
2022/05/20 06:55:40;;;;;;;15.30;9.93;;;;;;;17.35;67.31;102080.47;5079537;28;20028;-49
2022/05/20 06:58:06;;;;;;;15.15;10.30;;;;;;;17.25;66.58;102074.25;5082016;28;20039;-53
2022/05/20 07:00:31;;;;;;;10.90;8.68;;;;;;;17.27;67.44;102074.28;5084939;28;20044;-52
2022/05/20 07:02:56;;;;;;;13.68;8.80;;;;;;;17.39;66.67;102071.91;5078937;28;20029;-52
2022/05/20 07:05:22;;;;;;;12.80;8.70;;;;;;;17.50;65.47;102059.13;5083987;28;20038;-53
2022/05/20 07:07:48;;;;;;;17.17;9.35;;;;;;;17.64;66.08;102061.09;5086366;28;20031;-52
2022/05/20 07:10:15;;;;;;;18.48;11.73;;;;;;;17.71;66.34;102054.28;5082863;28;20372;-53
2022/05/20 07:12:41;;;;;;;16.05;11.27;;;;;;;17.81;66.83;102061.44;5081941;28;20032;-50
2022/05/20 07:15:08;;;;;;;13.00;9.27;;;;;;;17.77;63.73;102058.75;5081458;28;20036;-49
2022/05/20 07:17:35;;;;;;;10.68;8.13;;;;;;;17.83;63.32;102045.84;5077732;28;20082;-52
2022/05/20 07:20:00;;;;;;;12.90;9.20;;;;;;;17.77;61.22;102043.16;5078428;28;20130;-53
2022/05/20 07:22:26;;;;;;;12.95;9.05;;;;;;;17.74;62.35;102046.59;5081212;28;20520;-51
2022/05/20 07:24:51;;;;;;;11.85;8.55;;;;;;;17.79;64.73;102029.34;5078453;28;20024;-48
2022/05/20 07:27:17;;;;;;;15.13;8.85;;;;;;;17.90;63.96;102024.31;5078321;28;20567;-50
2022/05/20 07:29:43;;;;;;;13.35;8.98;;;;;;;17.91;62.65;102031.28;5078988;28;20388;-52
2022/05/20 07:32:09;;;;;;;14.07;8.85;;;;;;;17.91;63.40;102026.06;5078931;28;20028;-52
2022/05/20 07:34:35;;;;;;;15.70;8.45;;;;;;;17.97;63.30;102026.16;5075662;28;20062;-52
2022/05/20 07:37:01;;;;;;;13.00;8.90;;;;;;;17.99;62.61;102019.25;5080585;28;20035;-52
2022/05/20 07:39:26;;;;;;;12.27;9.10;;;;;;;18.12;63.41;102015.97;5074733;28;22086;-53
2022/05/20 07:41:54;;;;;;;15.82;9.68;;;;;;;18.22;63.23;102019.59;5080268;28;20492;-55
2022/05/20 07:44:20;;;;;;;18.25;9.70;;;;;;;18.26;63.66;102020.50;5057464;28;20040;-52
2022/05/20 07:46:45;;;;;;;12.52;9.00;;;;;;;18.34;64.63;102021.53;5082108;28;20036;-51
2022/05/20 07:49:11;;;;;;;13.63;9.20;;;;;;;18.47;64.60;102000.88;5080561;28;20044;-47
2022/05/20 07:51:41;;;;;;;12.20;8.88;;;;;;;18.65;64.88;102007.19;5083462;28;20098;-49
2022/05/20 07:54:12;;;;;;;14.15;8.52;;;;;;;18.72;62.33;101996.00;5080253;28;20503;-49
2022/05/20 07:56:41;;;;;;;12.70;7.97;;;;;;;18.86;61.77;102006.59;5077544;28;20027;-50
2022/05/20 07:59:18;;;;;;;13.07;8.68;;;;;;;18.87;60.78;102001.44;5076651;28;20131;-48
2022/05/20 08:01:49;;;;;;;12.13;7.95;;;;;;;18.88;60.64;102000.56;5074367;28;20048;-53
2022/05/20 08:07:02;;;;;;;12.32;8.18;;;;;;;18.87;60.75;101998.81;5084134;28;20119;-50
2022/05/20 08:09:28;;;;;;;11.63;7.80;;;;;;;18.84;60.81;101997.91;5081876;28;20554;-50
2022/05/20 08:11:55;;;;;;;15.38;8.43;;;;;;;18.71;58.57;101984.72;5083145;28;20050;-54
2022/05/20 08:14:21;;;;;;;12.40;7.57;;;;;;;18.66;60.29;101986.34;5079017;28;20522;-50
2022/05/20 08:16:46;;;;;;;13.98;7.95;;;;;;;18.70;61.23;101976.88;5074054;28;20040;-52
2022/05/20 08:19:12;;;;;;;12.70;8.23;;;;;;;18.80;61.02;101977.84;5076297;28;20686;-49
2022/05/20 08:21:37;;;;;;;10.88;7.90;;;;;;;18.88;60.17;101979.72;5082378;28;20078;-52
2022/05/20 08:24:03;;;;;;;10.93;8.18;;;;;;;18.99;59.24;101969.41;5080831;28;20031;-54
2022/05/20 08:26:28;;;;;;;11.25;7.97;;;;;;;19.06;59.84;101972.97;5080311;28;20028;-51
2022/05/20 08:28:54;;;;;;;15.07;8.68;;;;;;;19.11;59.34;101966.94;5078699;28;20046;-53
2022/05/20 08:31:19;;;;;;;11.18;8.38;;;;;;;19.07;59.54;101959.94;5069645;28;20036;-49
2022/05/20 08:33:45;;;;;;;13.38;9.02;;;;;;;19.12;59.21;101957.38;5072992;28;20032;-52
2022/05/20 08:36:11;;;;;;;11.45;8.77;;;;;;;19.15;59.34;101960.88;5043510;28;20029;-49
2022/05/20 08:38:36;;;;;;;11.68;9.27;;;;;;;19.18;59.96;101958.31;5074453;28;20044;-50
2022/05/20 08:41:02;;;;;;;14.00;9.38;;;;;;;19.23;58.77;101945.31;5077367;28;20036;-52
2022/05/20 08:43:37;;;;;;;14.23;9.50;;;;;;;19.37;61.31;101946.31;5072711;28;20035;-48
2022/05/20 08:46:07;;;;;;;14.07;9.13;;;;;;;19.41;59.41;101931.56;5077539;28;20119;-52
2022/05/20 08:48:33;;;;;;;15.02;9.13;;;;;;;19.39;58.65;101926.34;5079836;28;20387;-52
2022/05/20 08:50:59;;;;;;;16.20;10.07;;;;;;;19.38;57.92;101908.06;5080707;28;20115;-49
2022/05/20 08:53:36;;;;;;;17.80;10.18;;;;;;;19.40;59.02;101899.38;5079800;28;20032;-49
2022/05/20 08:56:07;;;;;;;13.48;9.77;;;;;;;19.39;57.99;101895.03;5076414;28;21925;-52
2022/05/20 08:58:35;;;;;;;13.32;9.43;;;;;;;19.43;58.75;101886.38;5078029;28;20024;-53
2022/05/20 09:01:00;;;;;;;15.68;10.15;;;;;;;19.56;59.11;101887.34;5077072;28;20049;-52
2022/05/20 09:03:30;;;;;;;17.27;9.30;;;;;;;19.67;59.23;101877.91;5077231;28;20543;-50
2022/05/20 09:06:11;;;;;;;16.55;9.95;;;;;;;19.76;59.63;101877.94;5076230;28;20067;-48
2022/05/20 09:08:37;;;;;;;15.65;9.35;;;;;;;19.79;58.35;101874.50;5080398;28;20059;-52
2022/05/20 09:11:05;;;;;;;11.98;9.15;;;;;;;19.78;57.77;101872.75;5078407;28;20444;-52
2022/05/20 09:16:28;;;;;;;14.20;9.38;;;;;;;19.98;58.23;101883.31;5078449;28;20780;-50
2022/05/20 09:19:14;;;;;;;14.02;9.45;;;;;;;20.06;59.95;101879.00;5083557;28;20479;-52
2022/05/20 09:21:47;;;;;;;11.90;8.88;;;;;;;20.15;59.12;101878.19;5078208;28;20481;-52
2022/05/20 09:24:19;;;;;;;11.38;7.80;;;;;;;20.14;59.08;101873.78;5078779;28;20043;-51
2022/05/20 09:27:00;;;;;;;13.35;8.20;;;;;;;20.11;58.66;101856.38;5081584;28;20035;-50
2022/05/20 09:29:28;;;;;;;13.25;8.52;;;;;;;20.09;58.23;101863.34;5076854;28;20115;-53
2022/05/20 09:32:03;;;;;;;15.85;7.70;;;;;;;20.19;59.07;101846.84;5080950;28;20442;-50
2022/05/20 09:34:39;;;;;;;13.77;7.70;;;;;;;20.34;60.00;101832.97;5078481;28;20073;-52
2022/05/20 09:37:13;;;;;;;13.75;7.65;;;;;;;20.43;57.79;101813.84;5076639;28;20432;-46
2022/05/20 09:39:44;;;;;;;11.50;7.82;;;;;;;20.55;57.43;101813.91;5070850;28;20040;-49
2022/05/20 09:42:18;;;;;;;13.90;7.72;;;;;;;20.62;57.10;101813.03;5076131;28;20417;-53
2022/05/20 09:44:55;;;;;;;15.18;8.30;;;;;;;20.54;57.24;101813.03;5074695;28;20166;-49
2022/05/20 09:47:46;;;;;;;10.30;7.88;;;;;;;20.57;57.29;101818.28;5071406;28;20116;-51
2022/05/20 09:50:17;;;;;;;15.50;8.23;;;;;;;20.52;56.01;101808.69;5074878;28;20031;-49
2022/05/20 09:53:07;;;;;;;13.95;7.80;;;;;;;20.50;56.47;101794.72;5080571;28;20380;-52
2022/05/20 09:55:44;;;;;;;11.93;7.18;;;;;;;20.44;57.45;101795.53;5078658;28;20032;-49
2022/05/20 09:58:12;;;;;;;10.25;7.25;;;;;;;20.42;57.54;101785.97;5080216;28;20032;-51
2022/05/20 10:00:39;;;;;;;13.70;7.25;;;;;;;20.44;57.97;101773.78;5077352;28;20109;-52
2022/05/20 10:03:10;;;;;;;11.60;7.25;;;;;;;20.48;58.31;101763.38;5082309;28;20028;-49
2022/05/20 10:06:06;;;;;;;11.90;7.40;;;;;;;20.52;57.77;101745.97;5071521;28;20036;-52
2022/05/20 10:08:53;;;;;;;14.63;7.43;;;;;;;20.57;57.37;101739.03;5070748;28;20033;-49
2022/05/20 10:11:37;;;;;;;12.43;7.07;;;;;;;20.60;57.56;101746.84;5072522;28;20039;-52
2022/05/20 10:14:10;;;;;;;12.70;6.88;;;;;;;20.57;56.85;101741.63;5069096;28;20024;-49
2022/05/20 10:16:38;;;;;;;12.15;6.50;;;;;;;20.59;56.62;101719.84;5072957;28;20119;-53
2022/05/20 10:19:21;;;;;;;13.30;6.57;;;;;;;20.65;57.56;101716.38;5066803;28;20105;-47
2022/05/20 10:22:12;;;;;;;9.90;6.75;;;;;;;20.61;57.21;101707.63;5063113;28;20115;-49
2022/05/20 10:25:01;;;;;;;12.10;6.90;;;;;;;20.61;57.50;101693.72;5072175;28;20085;-50
2022/05/20 10:28:07;;;;;;;11.75;7.68;;;;;;;20.60;57.76;101687.63;5075335;28;20571;-49
2022/05/20 10:33:30;;;;;;;14.00;7.47;;;;;;;20.61;57.38;101668.44;5077332;28;20542;-55
2022/05/20 10:36:05;;;;;;;13.38;8.00;;;;;;;20.60;58.12;101664.09;5075545;28;20051;-49
2022/05/20 10:39:00;;;;;;;13.93;8.50;;;;;;;20.57;58.33;101660.63;5074916;28;20036;-52
2022/05/20 10:41:44;;;;;;;12.25;7.88;;;;;;;20.63;58.92;101655.41;5070319;28;20029;-52
2022/05/20 10:50:31;;;;;;;13.98;8.82;;;;;;;20.72;59.06;101615.31;5067383;28;20110;-46
2022/05/20 10:53:19;;;;;;;14.00;9.77;;;;;;;20.71;59.00;101600.50;5073811;28;20386;-48
2022/05/20 10:55:53;;;;;;;12.65;7.95;;;;;;;20.76;60.76;101591.78;5077765;28;20032;-53
2022/05/20 10:58:21;;;;;;;17.55;9.70;;;;;;;20.76;59.69;101575.22;5079188;28;20047;-57
2022/05/20 11:00:52;;;;;;;12.97;9.57;;;;;;;20.76;60.15;101552.56;5074833;28;20068;-48
2022/05/20 11:03:32;;;;;;;15.85;10.95;;;;;;;20.74;59.39;101540.38;5075535;28;20036;-50
2022/05/20 11:06:09;;;;;;;14.50;11.05;;;;;;;20.78;60.62;101516.84;5071096;28;20477;-53
2022/05/20 11:08:37;;;;;;;15.50;10.70;;;;;;;20.81;60.95;101515.94;5071855;28;20289;-48
2022/05/20 11:11:31;;;;;;;15.35;10.32;;;;;;;20.88;61.34;101500.25;5070024;28;20645;-53
2022/05/20 11:14:26;;;;;;;16.67;11.38;;;;;;;20.92;61.00;101495.88;5075830;28;20470;-46
2022/05/20 11:17:34;;;;;;;18.08;11.18;;;;;;;20.97;60.68;101503.69;5077596;28;20032;-51
2022/05/20 11:20:06;;;;;;;16.20;10.80;;;;;;;20.93;60.80;101495.00;5053426;28;20071;-51
2022/05/20 11:22:53;;;;;;;15.25;10.30;;;;;;;20.96;61.34;101496.72;5072705;28;20523;-51
2022/05/20 11:25:27;;;;;;;17.42;10.90;;;;;;;20.99;61.04;101476.69;5074729;28;20119;-49
2022/05/20 11:28:15;;;;;;;16.17;11.65;;;;;;;21.00;60.46;101483.66;5073727;28;20484;-54
2022/05/20 11:30:43;;;;;;;18.10;11.40;;;;;;;21.03;61.98;101485.38;5072686;28;22417;-49
2022/05/20 11:33:21;;;;;;;16.83;11.57;;;;;;;21.06;61.39;101470.53;5070711;28;20550;-52
2022/05/20 11:36:25;;;;;;;20.77;14.77;;;;;;;21.09;61.17;101451.34;5070181;28;20036;-45
2022/05/20 11:38:53;;;;;;;22.42;14.93;;;;;;;21.01;61.00;101445.28;5072944;28;20085;-53
2022/05/20 11:41:50;;;;;;;22.98;14.93;;;;;;;21.05;62.00;101441.75;5073585;28;20117;-52
2022/05/20 11:44:42;;;;;;;23.20;15.55;;;;;;;21.05;62.55;101447.00;5070900;28;20028;-48
2022/05/20 11:47:18;;;;;;;20.92;16.60;;;;;;;21.00;62.24;101446.19;5068831;28;20039;-51
2022/05/20 11:50:09;;;;;;;20.77;16.67;;;;;;;21.01;62.87;101434.84;5073974;28;20158;-50
2022/05/20 11:52:43;;;;;;;23.77;17.80;;;;;;;20.95;63.30;101432.25;5065982;28;20028;-46
2022/05/20 11:55:39;;;;;;;23.38;17.85;;;;;;;20.96;62.80;101415.69;5068814;28;20032;-52
2022/05/20 11:58:08;;;;;;;25.13;19.00;;;;;;;20.87;63.51;101406.16;5073842;28;20480;-51
2022/05/20 12:00:39;;;;;;;27.23;19.63;;;;;;;20.85;64.09;101405.28;5077894;28;20044;-46
2022/05/20 12:03:09;;;;;;;26.45;19.73;;;;;;;20.81;64.15;101414.91;5075562;28;20059;-53
2022/05/20 12:05:40;;;;;;;28.38;19.75;;;;;;;20.80;63.92;101413.16;5076246;28;20805;-49